Airfield :
LOGIN :

Register | Disclaimer

   EN    FR    IT 

 










Legend :    VFR   Marginal VFR   IFR   Intensive IFR   Very Intensive IFR
Visi :
Ceiling :
>= 8 km
>= 3000ft
5 to 8 km
1000 to 3000 ft
1500m to 5 km
500 to 1000 ft
800 to 1500m
200 to 500 ft
< 800m
< 200 ft
Symbols :   Thunderstorms  Fog  Heavy snow  Heavy precipitations  Wind > 20 kt
SIGMETs :     Misc.  Thunderstorms  Icing  Turbulence  Mountain Waves  Volcanic Ashes







- Airport Elevation : 353 ft
- IATA code : LIN


LIML - Milano Linate

CURRENT METAR :
  • 160620Z 08008KT 050V110 9000 FEW015 BKN040 21/18 Q1014 NOSIG

EXPIRED METARs :
  • 160550Z 09007KT 8000 FEW015 SCT040 21/18 Q1013 NOSIG
  • 160520Z 10006KT 070V140 9999 SCT040 21/18 Q1014 NOSIG
  • 160450Z 11005KT 050V160 9999 BKN040 21/18 Q1014 NOSIG
  • 160420Z 09007KT 060V120 9999 BKN030 21/18 Q1014 NOSIG
  • 160350Z 08005KT 060V120 9999 BKN030 21/18 Q1013 NOSIG

TAF TAF LIML
Valid from the 16 at 06:00 until the 17 at 06:00 UTC


160500Z 1606/1706 VRB05KT 9999 SCT040
TEMPO 1613/1620 TSRA
No reported NOTAMs for that airfield.
2 SIGMETs reported for the Milano FIR (LIMM) :
 
Severe turbulence
LIMM SIGMET 2 VALID 160500/160700 LIIP
LIMM MILANO FIR SEV TURB FCST W OF LINE N4648 E01238 - N4517 E01313 ABV FL260 MOV E NC=
Embedded thunderstorms
LIMM SIGMET 1 VALID 160400/160700 LIIP
LIMM MILANO FIR EMBD TS OBS WI N4621 E01047 - N4625 E01339 - N4536 E01404 - N4509 E01252 - N4330 E01439 - N4343 E01158 - N4605 E01004 - N4621 E01047 ABV FL380 MOV E WKN=



MET'MAP, your aeronautical weather chart ! - Copyright ORBIFLY December 2007 - Disclaimer

ORBIFLY MET'MAP TEAM :

Programming & Development : Alexandra Zaïnal
Concept & Development : Baudouin d'Aumeries
Co-Development & Prog : Marc-Olivier Méhu
Technical & hardware support : Manuel Goepfert

Contact : metmap@orbifly.com




SOURCES & CREDITS :

   NOAA